sensor_id;sensor_type;location;lat;lon;timestamp;temperature;humidity
2042;DHT22;1026;51.460;7.252;2022-08-25T00:01:26;25.30;63.60
2042;DHT22;1026;51.460;7.252;2022-08-25T00:03:53;25.30;63.60
2042;DHT22;1026;51.460;7.252;2022-08-25T00:06:19;25.30;63.60
2042;DHT22;1026;51.460;7.252;2022-08-25T00:08:48;25.20;63.60
2042;DHT22;1026;51.460;7.252;2022-08-25T00:11:17;25.20;63.70
2042;DHT22;1026;51.460;7.252;2022-08-25T00:13:46;25.20;63.80
2042;DHT22;1026;51.460;7.252;2022-08-25T00:16:14;25.20;63.80
2042;DHT22;1026;51.460;7.252;2022-08-25T00:18:43;25.10;63.80
2042;DHT22;1026;51.460;7.252;2022-08-25T00:21:12;25.10;63.80
2042;DHT22;1026;51.460;7.252;2022-08-25T00:23:38;25.10;63.90
2042;DHT22;1026;51.460;7.252;2022-08-25T00:26:05;25.10;64.00
2042;DHT22;1026;51.460;7.252;2022-08-25T00:28:31;25.10;64.10
2042;DHT22;1026;51.460;7.252;2022-08-25T00:30:57;25.00;64.10
2042;DHT22;1026;51.460;7.252;2022-08-25T00:33:25;25.00;64.10
2042;DHT22;1026;51.460;7.252;2022-08-25T00:35:52;25.00;64.20
2042;DHT22;1026;51.460;7.252;2022-08-25T00:38:19;25.00;64.10
2042;DHT22;1026;51.460;7.252;2022-08-25T00:40:45;25.00;64.30
2042;DHT22;1026;51.460;7.252;2022-08-25T00:43:11;24.80;64.20
2042;DHT22;1026;51.460;7.252;2022-08-25T00:45:37;24.90;64.40
2042;DHT22;1026;51.460;7.252;2022-08-25T00:48:04;24.80;64.30
2042;DHT22;1026;51.460;7.252;2022-08-25T00:50:32;24.90;64.40
2042;DHT22;1026;51.460;7.252;2022-08-25T00:53:01;24.90;64.70
2042;DHT22;1026;51.460;7.252;2022-08-25T00:55:35;24.80;64.60
2042;DHT22;1026;51.460;7.252;2022-08-25T00:58:07;24.80;64.70
2042;DHT22;1026;51.460;7.252;2022-08-25T01:00:39;24.80;64.80
2042;DHT22;1026;51.460;7.252;2022-08-25T01:03:06;24.80;64.90
2042;DHT22;1026;51.460;7.252;2022-08-25T01:05:32;24.80;65.00
2042;DHT22;1026;51.460;7.252;2022-08-25T01:07:59;24.80;65.10
2042;DHT22;1026;51.460;7.252;2022-08-25T01:10:28;24.70;65.10
2042;DHT22;1026;51.460;7.252;2022-08-25T01:12:59;24.70;65.10
2042;DHT22;1026;51.460;7.252;2022-08-25T01:15:26;24.70;65.30
2042;DHT22;1026;51.460;7.252;2022-08-25T01:17:55;24.70;65.40
2042;DHT22;1026;51.460;7.252;2022-08-25T01:20:23;24.60;65.30
2042;DHT22;1026;51.460;7.252;2022-08-25T01:22:50;24.60;65.40
2042;DHT22;1026;51.460;7.252;2022-08-25T01:27:48;24.60;65.50
2042;DHT22;1026;51.460;7.252;2022-08-25T01:30:14;24.60;65.50
2042;DHT22;1026;51.460;7.252;2022-08-25T01:32:40;24.50;65.40
2042;DHT22;1026;51.460;7.252;2022-08-25T01:35:05;24.50;65.40
2042;DHT22;1026;51.460;7.252;2022-08-25T01:37:33;24.50;65.50
2042;DHT22;1026;51.460;7.252;2022-08-25T01:39:59;24.40;65.40
2042;DHT22;1026;51.460;7.252;2022-08-25T01:45:18;24.40;65.50
2042;DHT22;1026;51.460;7.252;2022-08-25T01:47:44;24.40;65.60
2042;DHT22;1026;51.460;7.252;2022-08-25T01:50:10;24.40;65.60
2042;DHT22;1026;51.460;7.252;2022-08-25T01:55:11;24.40;65.70
2042;DHT22;1026;51.460;7.252;2022-08-25T01:57:36;24.40;65.70
2042;DHT22;1026;51.460;7.252;2022-08-25T02:00:05;24.40;65.70
2042;DHT22;1026;51.460;7.252;2022-08-25T02:02:31;24.30;65.60
2042;DHT22;1026;51.460;7.252;2022-08-25T02:04:57;24.30;65.70
2042;DHT22;1026;51.460;7.252;2022-08-25T02:07:23;24.30;65.70
2042;DHT22;1026;51.460;7.252;2022-08-25T02:09:48;24.30;65.70
2042;DHT22;1026;51.460;7.252;2022-08-25T02:12:14;24.20;65.70
2042;DHT22;1026;51.460;7.252;2022-08-25T02:14:40;24.10;65.50
2042;DHT22;1026;51.460;7.252;2022-08-25T02:17:05;24.20;65.70
2042;DHT22;1026;51.460;7.252;2022-08-25T02:19:31;24.10;65.60
2042;DHT22;1026;51.460;7.252;2022-08-25T02:21:58;24.20;65.70
2042;DHT22;1026;51.460;7.252;2022-08-25T02:24:24;24.20;65.80
2042;DHT22;1026;51.460;7.252;2022-08-25T02:26:50;24.10;65.70
2042;DHT22;1026;51.460;7.252;2022-08-25T02:29:16;24.10;65.70
2042;DHT22;1026;51.460;7.252;2022-08-25T02:31:42;24.10;65.80
2042;DHT22;1026;51.460;7.252;2022-08-25T02:34:09;24.10;65.80
2042;DHT22;1026;51.460;7.252;2022-08-25T02:36:36;24.10;65.80
2042;DHT22;1026;51.460;7.252;2022-08-25T02:39:05;24.10;65.90
2042;DHT22;1026;51.460;7.252;2022-08-25T02:41:31;24.10;65.80
2042;DHT22;1026;51.460;7.252;2022-08-25T02:43:59;24.00;65.80
2042;DHT22;1026;51.460;7.252;2022-08-25T02:46:25;24.00;65.80
2042;DHT22;1026;51.460;7.252;2022-08-25T02:48:51;23.90;65.80
2042;DHT22;1026;51.460;7.252;2022-08-25T02:51:18;24.00;65.90
2042;DHT22;1026;51.460;7.252;2022-08-25T02:53:44;23.90;65.80
2042;DHT22;1026;51.460;7.252;2022-08-25T02:56:12;23.90;65.90
2042;DHT22;1026;51.460;7.252;2022-08-25T02:58:38;23.90;65.90
2042;DHT22;1026;51.460;7.252;2022-08-25T03:01:06;23.90;65.90
2042;DHT22;1026;51.460;7.252;2022-08-25T03:03:32;23.90;66.00
2042;DHT22;1026;51.460;7.252;2022-08-25T03:05:58;23.80;65.90
2042;DHT22;1026;51.460;7.252;2022-08-25T03:08:25;23.80;65.90
2042;DHT22;1026;51.460;7.252;2022-08-25T03:10:50;23.80;65.90
2042;DHT22;1026;51.460;7.252;2022-08-25T03:13:17;23.70;65.90
2042;DHT22;1026;51.460;7.252;2022-08-25T03:15:43;23.80;66.00
2042;DHT22;1026;51.460;7.252;2022-08-25T03:18:09;23.70;66.00
2042;DHT22;1026;51.460;7.252;2022-08-25T03:20:36;23.70;66.00
2042;DHT22;1026;51.460;7.252;2022-08-25T03:23:03;23.70;66.90
2042;DHT22;1026;51.460;7.252;2022-08-25T03:25:29;23.70;66.10
2042;DHT22;1026;51.460;7.252;2022-08-25T03:28:10;23.70;66.10
2042;DHT22;1026;51.460;7.252;2022-08-25T03:30:36;23.60;66.10
2042;DHT22;1026;51.460;7.252;2022-08-25T03:33:02;23.60;66.10
2042;DHT22;1026;51.460;7.252;2022-08-25T03:35:28;23.60;66.20
2042;DHT22;1026;51.460;7.252;2022-08-25T03:37:55;23.60;66.20
2042;DHT22;1026;51.460;7.252;2022-08-25T03:40:21;23.60;66.30
2042;DHT22;1026;51.460;7.252;2022-08-25T03:42:48;23.60;66.30
2042;DHT22;1026;51.460;7.252;2022-08-25T03:45:15;23.50;66.30
2042;DHT22;1026;51.460;7.252;2022-08-25T03:47:44;23.50;66.20
2042;DHT22;1026;51.460;7.252;2022-08-25T03:50:11;23.50;66.20
2042;DHT22;1026;51.460;7.252;2022-08-25T03:52:37;23.50;66.30
2042;DHT22;1026;51.460;7.252;2022-08-25T03:55:05;23.50;66.30
2042;DHT22;1026;51.460;7.252;2022-08-25T03:57:32;23.50;66.30
2042;DHT22;1026;51.460;7.252;2022-08-25T03:59:58;23.50;66.40
2042;DHT22;1026;51.460;7.252;2022-08-25T04:02:24;23.40;66.40
2042;DHT22;1026;51.460;7.252;2022-08-25T04:04:49;23.40;66.30
2042;DHT22;1026;51.460;7.252;2022-08-25T04:07:15;23.40;66.50
2042;DHT22;1026;51.460;7.252;2022-08-25T04:09:41;23.30;66.40
2042;DHT22;1026;51.460;7.252;2022-08-25T04:12:07;23.40;66.50
2042;DHT22;1026;51.460;7.252;2022-08-25T04:14:33;23.20;66.30
2042;DHT22;1026;51.460;7.252;2022-08-25T04:16:59;23.30;66.50
2042;DHT22;1026;51.460;7.252;2022-08-25T04:19:25;23.30;66.50
2042;DHT22;1026;51.460;7.252;2022-08-25T04:21:50;23.30;66.50
2042;DHT22;1026;51.460;7.252;2022-08-25T04:24:17;23.30;66.60
2042;DHT22;1026;51.460;7.252;2022-08-25T04:26:47;23.20;66.60
2042;DHT22;1026;51.460;7.252;2022-08-25T04:29:17;23.20;66.70
2042;DHT22;1026;51.460;7.252;2022-08-25T04:31:44;23.10;66.70
2042;DHT22;1026;51.460;7.252;2022-08-25T04:34:11;23.20;66.70
2042;DHT22;1026;51.460;7.252;2022-08-25T04:36:38;23.20;66.80
2042;DHT22;1026;51.460;7.252;2022-08-25T04:39:04;23.20;66.80
2042;DHT22;1026;51.460;7.252;2022-08-25T04:41:30;23.10;66.80
2042;DHT22;1026;51.460;7.252;2022-08-25T04:43:58;23.10;66.80
2042;DHT22;1026;51.460;7.252;2022-08-25T04:46:26;23.00;66.60
2042;DHT22;1026;51.460;7.252;2022-08-25T04:48:54;23.00;66.90
2042;DHT22;1026;51.460;7.252;2022-08-25T04:51:24;23.00;66.80
2042;DHT22;1026;51.460;7.252;2022-08-25T04:53:50;23.10;67.00
2042;DHT22;1026;51.460;7.252;2022-08-25T04:56:18;23.00;66.90
2042;DHT22;1026;51.460;7.252;2022-08-25T04:58:45;23.00;66.90
2042;DHT22;1026;51.460;7.252;2022-08-25T05:01:14;23.00;67.00
2042;DHT22;1026;51.460;7.252;2022-08-25T05:03:40;23.00;67.00
2042;DHT22;1026;51.460;7.252;2022-08-25T05:06:07;22.90;66.90
2042;DHT22;1026;51.460;7.252;2022-08-25T05:08:33;23.00;67.10
2042;DHT22;1026;51.460;7.252;2022-08-25T05:11:03;22.90;66.90
2042;DHT22;1026;51.460;7.252;2022-08-25T05:13:29;22.90;67.10
2042;DHT22;1026;51.460;7.252;2022-08-25T05:15:56;22.90;67.10
2042;DHT22;1026;51.460;7.252;2022-08-25T05:18:24;22.90;67.00
2042;DHT22;1026;51.460;7.252;2022-08-25T05:20:51;23.00;67.00
2042;DHT22;1026;51.460;7.252;2022-08-25T05:23:19;23.00;66.90
2042;DHT22;1026;51.460;7.252;2022-08-25T05:25:46;23.00;67.00
2042;DHT22;1026;51.460;7.252;2022-08-25T05:28:12;22.90;66.90
2042;DHT22;1026;51.460;7.252;2022-08-25T05:30:41;22.90;66.90
2042;DHT22;1026;51.460;7.252;2022-08-25T05:33:07;22.90;67.00
2042;DHT22;1026;51.460;7.252;2022-08-25T05:35:34;22.90;67.20
2042;DHT22;1026;51.460;7.252;2022-08-25T05:38:20;22.90;67.20
2042;DHT22;1026;51.460;7.252;2022-08-25T05:40:46;22.80;67.10
2042;DHT22;1026;51.460;7.252;2022-08-25T05:43:11;22.80;67.20
2042;DHT22;1026;51.460;7.252;2022-08-25T05:45:39;22.80;67.10
2042;DHT22;1026;51.460;7.252;2022-08-25T05:48:05;22.80;67.20
2042;DHT22;1026;51.460;7.252;2022-08-25T05:50:31;22.80;67.30
2042;DHT22;1026;51.460;7.252;2022-08-25T05:52:57;22.80;67.40
2042;DHT22;1026;51.460;7.252;2022-08-25T05:55:22;22.70;67.30
2042;DHT22;1026;51.460;7.252;2022-08-25T05:57:48;22.70;67.30
2042;DHT22;1026;51.460;7.252;2022-08-25T06:00:15;22.60;67.30
2042;DHT22;1026;51.460;7.252;2022-08-25T06:02:42;22.70;67.40
2042;DHT22;1026;51.460;7.252;2022-08-25T06:05:14;22.70;67.50
2042;DHT22;1026;51.460;7.252;2022-08-25T06:07:41;22.70;67.60
2042;DHT22;1026;51.460;7.252;2022-08-25T06:10:07;22.70;67.60
2042;DHT22;1026;51.460;7.252;2022-08-25T06:12:36;22.60;67.50
2042;DHT22;1026;51.460;7.252;2022-08-25T06:15:04;22.70;67.60
2042;DHT22;1026;51.460;7.252;2022-08-25T06:17:30;22.60;67.60
2042;DHT22;1026;51.460;7.252;2022-08-25T06:19:56;22.60;67.50
2042;DHT22;1026;51.460;7.252;2022-08-25T06:22:22;22.60;67.50
2042;DHT22;1026;51.460;7.252;2022-08-25T06:24:50;22.60;67.60
2042;DHT22;1026;51.460;7.252;2022-08-25T06:27:15;22.60;67.50
2042;DHT22;1026;51.460;7.252;2022-08-25T06:29:42;22.60;67.70
2042;DHT22;1026;51.460;7.252;2022-08-25T06:32:07;22.60;67.70
2042;DHT22;1026;51.460;7.252;2022-08-25T06:34:33;22.60;67.80
2042;DHT22;1026;51.460;7.252;2022-08-25T06:36:59;22.60;67.70
2042;DHT22;1026;51.460;7.252;2022-08-25T06:39:25;22.60;67.70
2042;DHT22;1026;51.460;7.252;2022-08-25T06:41:52;22.60;67.70
2042;DHT22;1026;51.460;7.252;2022-08-25T06:44:18;22.60;67.80
2042;DHT22;1026;51.460;7.252;2022-08-25T06:46:44;22.60;67.80
2042;DHT22;1026;51.460;7.252;2022-08-25T06:49:09;22.50;67.80
2042;DHT22;1026;51.460;7.252;2022-08-25T06:51:36;22.50;67.70
2042;DHT22;1026;51.460;7.252;2022-08-25T06:54:02;22.50;67.70
2042;DHT22;1026;51.460;7.252;2022-08-25T06:56:28;22.40;67.70
2042;DHT22;1026;51.460;7.252;2022-08-25T06:58:54;22.50;67.90
2042;DHT22;1026;51.460;7.252;2022-08-25T07:01:22;22.50;67.90
2042;DHT22;1026;51.460;7.252;2022-08-25T07:03:50;22.50;67.90
2042;DHT22;1026;51.460;7.252;2022-08-25T07:06:17;22.50;67.90
2042;DHT22;1026;51.460;7.252;2022-08-25T07:08:43;22.50;67.90
2042;DHT22;1026;51.460;7.252;2022-08-25T07:11:10;22.50;67.90
2042;DHT22;1026;51.460;7.252;2022-08-25T07:13:37;22.50;67.90
2042;DHT22;1026;51.460;7.252;2022-08-25T07:16:03;22.50;68.00
2042;DHT22;1026;51.460;7.252;2022-08-25T07:18:30;22.50;68.00
2042;DHT22;1026;51.460;7.252;2022-08-25T07:20:55;22.50;68.00
2042;DHT22;1026;51.460;7.252;2022-08-25T07:23:22;22.50;68.10
2042;DHT22;1026;51.460;7.252;2022-08-25T07:25:49;22.40;68.00
2042;DHT22;1026;51.460;7.252;2022-08-25T07:28:16;22.40;68.00
2042;DHT22;1026;51.460;7.252;2022-08-25T07:30:42;22.40;68.00
2042;DHT22;1026;51.460;7.252;2022-08-25T07:33:08;22.40;69.10
2042;DHT22;1026;51.460;7.252;2022-08-25T07:35:34;22.30;68.00
2042;DHT22;1026;51.460;7.252;2022-08-25T07:38:02;22.40;68.10
2042;DHT22;1026;51.460;7.252;2022-08-25T07:40:33;22.40;68.90
2042;DHT22;1026;51.460;7.252;2022-08-25T07:43:02;22.40;68.20
2042;DHT22;1026;51.460;7.252;2022-08-25T07:45:31;22.40;68.20
2042;DHT22;1026;51.460;7.252;2022-08-25T07:47:58;22.40;68.40
2042;DHT22;1026;51.460;7.252;2022-08-25T07:50:25;22.40;68.70
2042;DHT22;1026;51.460;7.252;2022-08-25T07:52:51;22.40;68.20
2042;DHT22;1026;51.460;7.252;2022-08-25T07:55:17;22.40;68.20
2042;DHT22;1026;51.460;7.252;2022-08-25T07:57:44;22.40;68.20
2042;DHT22;1026;51.460;7.252;2022-08-25T08:00:13;22.40;68.70
2042;DHT22;1026;51.460;7.252;2022-08-25T08:02:40;22.40;68.40
2042;DHT22;1026;51.460;7.252;2022-08-25T08:05:07;22.40;68.30
2042;DHT22;1026;51.460;7.252;2022-08-25T08:07:32;22.40;68.70
2042;DHT22;1026;51.460;7.252;2022-08-25T08:09:59;22.40;68.30
2042;DHT22;1026;51.460;7.252;2022-08-25T08:12:25;22.30;68.30
2042;DHT22;1026;51.460;7.252;2022-08-25T08:14:51;22.40;68.70
2042;DHT22;1026;51.460;7.252;2022-08-25T08:17:18;22.30;68.40
2042;DHT22;1026;51.460;7.252;2022-08-25T08:19:44;22.40;68.40
2042;DHT22;1026;51.460;7.252;2022-08-25T08:22:12;22.40;68.40
2042;DHT22;1026;51.460;7.252;2022-08-25T08:24:40;22.30;68.30
2042;DHT22;1026;51.460;7.252;2022-08-25T08:27:09;22.30;68.30
2042;DHT22;1026;51.460;7.252;2022-08-25T08:29:37;22.40;68.30
2042;DHT22;1026;51.460;7.252;2022-08-25T08:32:05;22.40;68.40
2042;DHT22;1026;51.460;7.252;2022-08-25T08:34:34;22.30;68.10
2042;DHT22;1026;51.460;7.252;2022-08-25T08:37:00;22.40;68.40
2042;DHT22;1026;51.460;7.252;2022-08-25T08:39:27;22.50;68.50
2042;DHT22;1026;51.460;7.252;2022-08-25T08:42:36;22.40;68.40
2042;DHT22;1026;51.460;7.252;2022-08-25T08:45:15;22.30;68.40
2042;DHT22;1026;51.460;7.252;2022-08-25T08:48:05;22.40;68.40
2042;DHT22;1026;51.460;7.252;2022-08-25T08:53:43;22.50;68.60
2042;DHT22;1026;51.460;7.252;2022-08-25T08:56:15;22.30;68.70
2042;DHT22;1026;51.460;7.252;2022-08-25T08:58:49;22.40;68.50
2042;DHT22;1026;51.460;7.252;2022-08-25T09:01:25;22.50;68.70
2042;DHT22;1026;51.460;7.252;2022-08-25T09:04:02;22.50;68.80
2042;DHT22;1026;51.460;7.252;2022-08-25T09:06:40;22.50;68.80
2042;DHT22;1026;51.460;7.252;2022-08-25T09:09:08;22.50;69.00
2042;DHT22;1026;51.460;7.252;2022-08-25T09:12:15;22.50;69.10
2042;DHT22;1026;51.460;7.252;2022-08-25T09:26:12;22.40;69.30
2042;DHT22;1026;51.460;7.252;2022-08-25T09:28:40;22.50;69.70
2042;DHT22;1026;51.460;7.252;2022-08-25T09:31:17;22.40;69.60
2042;DHT22;1026;51.460;7.252;2022-08-25T09:33:43;22.50;69.80
2042;DHT22;1026;51.460;7.252;2022-08-25T09:36:10;22.50;69.40
2042;DHT22;1026;51.460;7.252;2022-08-25T09:38:36;22.40;69.60
2042;DHT22;1026;51.460;7.252;2022-08-25T09:41:02;22.60;69.30
2042;DHT22;1026;51.460;7.252;2022-08-25T09:43:35;22.60;69.70
2042;DHT22;1026;51.460;7.252;2022-08-25T09:48:48;22.60;69.50
2042;DHT22;1026;51.460;7.252;2022-08-25T09:51:26;22.60;69.70
2042;DHT22;1026;51.460;7.252;2022-08-25T09:53:55;22.60;70.00
2042;DHT22;1026;51.460;7.252;2022-08-25T09:56:24;22.60;69.70
2042;DHT22;1026;51.460;7.252;2022-08-25T09:58:54;22.70;69.60
2042;DHT22;1026;51.460;7.252;2022-08-25T10:01:22;22.70;69.70
2042;DHT22;1026;51.460;7.252;2022-08-25T10:03:58;22.70;69.40
2042;DHT22;1026;51.460;7.252;2022-08-25T10:06:26;22.70;69.40
2042;DHT22;1026;51.460;7.252;2022-08-25T10:09:01;22.70;69.30
2042;DHT22;1026;51.460;7.252;2022-08-25T10:11:32;22.80;69.30
2042;DHT22;1026;51.460;7.252;2022-08-25T10:16:30;22.80;69.20
2042;DHT22;1026;51.460;7.252;2022-08-25T10:19:13;22.80;69.00
2042;DHT22;1026;51.460;7.252;2022-08-25T10:22:03;22.80;68.70
2042;DHT22;1026;51.460;7.252;2022-08-25T10:24:30;22.90;68.60
2042;DHT22;1026;51.460;7.252;2022-08-25T10:29:56;22.90;68.20
2042;DHT22;1026;51.460;7.252;2022-08-25T10:32:58;22.90;68.00
2042;DHT22;1026;51.460;7.252;2022-08-25T10:35:28;23.00;68.10
2042;DHT22;1026;51.460;7.252;2022-08-25T10:40:59;23.00;68.00
2042;DHT22;1026;51.460;7.252;2022-08-25T10:43:42;23.00;68.60
2042;DHT22;1026;51.460;7.252;2022-08-25T10:46:19;23.00;67.70
2042;DHT22;1026;51.460;7.252;2022-08-25T10:48:58;23.10;67.70
2042;DHT22;1026;51.460;7.252;2022-08-25T10:51:29;23.10;67.70
2042;DHT22;1026;51.460;7.252;2022-08-25T10:56:34;23.20;67.40
2042;DHT22;1026;51.460;7.252;2022-08-25T10:59:27;23.20;67.50
2042;DHT22;1026;51.460;7.252;2022-08-25T11:04:58;23.30;67.40
2042;DHT22;1026;51.460;7.252;2022-08-25T11:07:34;23.30;67.30
2042;DHT22;1026;51.460;7.252;2022-08-25T11:10:07;23.40;67.10
2042;DHT22;1026;51.460;7.252;2022-08-25T11:12:43;23.40;66.90
2042;DHT22;1026;51.460;7.252;2022-08-25T11:15:16;23.40;67.00
2042;DHT22;1026;51.460;7.252;2022-08-25T11:18:02;23.40;66.90
2042;DHT22;1026;51.460;7.252;2022-08-25T11:20:34;23.50;67.00
2042;DHT22;1026;51.460;7.252;2022-08-25T11:23:11;23.40;66.70
2042;DHT22;1026;51.460;7.252;2022-08-25T11:25:43;23.50;66.80
2042;DHT22;1026;51.460;7.252;2022-08-25T11:28:13;23.60;66.60
2042;DHT22;1026;51.460;7.252;2022-08-25T11:30:41;23.60;66.50
2042;DHT22;1026;51.460;7.252;2022-08-25T11:33:11;23.60;66.60
2042;DHT22;1026;51.460;7.252;2022-08-25T11:35:42;23.70;66.60
2042;DHT22;1026;51.460;7.252;2022-08-25T11:41:12;23.60;66.30
2042;DHT22;1026;51.460;7.252;2022-08-25T11:46:41;23.80;65.90
2042;DHT22;1026;51.460;7.252;2022-08-25T11:49:31;23.80;65.80
2042;DHT22;1026;51.460;7.252;2022-08-25T11:52:03;23.90;65.70
2042;DHT22;1026;51.460;7.252;2022-08-25T11:54:42;23.90;65.80
2042;DHT22;1026;51.460;7.252;2022-08-25T11:57:18;23.90;65.20
2042;DHT22;1026;51.460;7.252;2022-08-25T12:00:09;24.00;65.20
2042;DHT22;1026;51.460;7.252;2022-08-25T12:10:58;24.10;65.00
2042;DHT22;1026;51.460;7.252;2022-08-25T12:13:28;24.20;64.10
2042;DHT22;1026;51.460;7.252;2022-08-25T12:16:03;24.20;65.00
2042;DHT22;1026;51.460;7.252;2022-08-25T12:23:38;24.30;64.30
2042;DHT22;1026;51.460;7.252;2022-08-25T12:26:22;24.30;63.70
2042;DHT22;1026;51.460;7.252;2022-08-25T12:29:06;24.40;64.30
2042;DHT22;1026;51.460;7.252;2022-08-25T12:32:37;24.40;63.90
2042;DHT22;1026;51.460;7.252;2022-08-25T12:37:20;24.50;63.50
2042;DHT22;1026;51.460;7.252;2022-08-25T12:40:00;24.50;63.80
2042;DHT22;1026;51.460;7.252;2022-08-25T12:42:28;24.50;63.60
2042;DHT22;1026;51.460;7.252;2022-08-25T12:47:39;24.60;63.70
2042;DHT22;1026;51.460;7.252;2022-08-25T12:55:56;24.70;63.70
2042;DHT22;1026;51.460;7.252;2022-08-25T12:58:32;24.80;63.80
2042;DHT22;1026;51.460;7.252;2022-08-25T13:01:13;24.80;63.70
2042;DHT22;1026;51.460;7.252;2022-08-25T13:03:59;24.90;64.20
2042;DHT22;1026;51.460;7.252;2022-08-25T13:12:18;25.00;63.40
2042;DHT22;1026;51.460;7.252;2022-08-25T13:14:52;25.00;62.90
2042;DHT22;1026;51.460;7.252;2022-08-25T13:17:34;25.10;63.00
2042;DHT22;1026;51.460;7.252;2022-08-25T13:22:45;25.20;63.20
2042;DHT22;1026;51.460;7.252;2022-08-25T13:25:17;25.20;61.10
2042;DHT22;1026;51.460;7.252;2022-08-25T13:27:50;25.30;61.60
2042;DHT22;1026;51.460;7.252;2022-08-25T13:30:22;25.30;62.90
2042;DHT22;1026;51.460;7.252;2022-08-25T13:32:48;25.40;62.20
2042;DHT22;1026;51.460;7.252;2022-08-25T13:35:20;25.40;62.60
2042;DHT22;1026;51.460;7.252;2022-08-25T13:37:46;25.50;62.50
2042;DHT22;1026;51.460;7.252;2022-08-25T13:40:24;25.40;62.10
2042;DHT22;1026;51.460;7.252;2022-08-25T13:42:54;25.50;61.90
2042;DHT22;1026;51.460;7.252;2022-08-25T13:45:22;25.60;61.80
2042;DHT22;1026;51.460;7.252;2022-08-25T13:47:49;25.60;60.80
2042;DHT22;1026;51.460;7.252;2022-08-25T13:52:46;25.60;61.40
2042;DHT22;1026;51.460;7.252;2022-08-25T13:55:21;25.80;61.30
2042;DHT22;1026;51.460;7.252;2022-08-25T13:57:47;25.80;61.10
2042;DHT22;1026;51.460;7.252;2022-08-25T14:00:13;25.90;60.90
2042;DHT22;1026;51.460;7.252;2022-08-25T14:02:51;25.90;60.90
2042;DHT22;1026;51.460;7.252;2022-08-25T14:05:35;26.00;61.60
2042;DHT22;1026;51.460;7.252;2022-08-25T14:08:02;26.00;59.00
2042;DHT22;1026;51.460;7.252;2022-08-25T14:10:39;26.10;61.50
2042;DHT22;1026;51.460;7.252;2022-08-25T14:13:10;26.10;60.70
2042;DHT22;1026;51.460;7.252;2022-08-25T14:15:37;26.20;60.50
2042;DHT22;1026;51.460;7.252;2022-08-25T14:18:08;26.20;60.20
2042;DHT22;1026;51.460;7.252;2022-08-25T14:20:35;26.30;59.70
2042;DHT22;1026;51.460;7.252;2022-08-25T14:23:11;26.40;60.50
2042;DHT22;1026;51.460;7.252;2022-08-25T14:25:38;26.30;60.00
2042;DHT22;1026;51.460;7.252;2022-08-25T14:28:08;26.40;60.10
2042;DHT22;1026;51.460;7.252;2022-08-25T14:30:36;26.50;59.60
2042;DHT22;1026;51.460;7.252;2022-08-25T14:33:04;26.60;59.30
2042;DHT22;1026;51.460;7.252;2022-08-25T14:35:30;26.60;58.50
2042;DHT22;1026;51.460;7.252;2022-08-25T14:37:56;26.70;57.50
2042;DHT22;1026;51.460;7.252;2022-08-25T14:40:22;26.70;57.90
2042;DHT22;1026;51.460;7.252;2022-08-25T14:42:48;26.80;57.70
2042;DHT22;1026;51.460;7.252;2022-08-25T14:45:15;26.80;58.50
2042;DHT22;1026;51.460;7.252;2022-08-25T14:47:42;26.80;57.70
2042;DHT22;1026;51.460;7.252;2022-08-25T14:50:09;26.80;57.80
2042;DHT22;1026;51.460;7.252;2022-08-25T14:52:35;26.90;55.70
2042;DHT22;1026;51.460;7.252;2022-08-25T14:55:01;27.00;58.10
2042;DHT22;1026;51.460;7.252;2022-08-25T14:57:27;26.90;56.90
2042;DHT22;1026;51.460;7.252;2022-08-25T14:59:53;27.10;55.80
2042;DHT22;1026;51.460;7.252;2022-08-25T15:02:21;27.10;56.10
2042;DHT22;1026;51.460;7.252;2022-08-25T15:04:52;27.20;56.70
2042;DHT22;1026;51.460;7.252;2022-08-25T15:07:18;27.20;57.00
2042;DHT22;1026;51.460;7.252;2022-08-25T15:09:59;27.20;57.20
2042;DHT22;1026;51.460;7.252;2022-08-25T15:12:25;27.20;57.70
2042;DHT22;1026;51.460;7.252;2022-08-25T15:14:51;27.30;55.60
2042;DHT22;1026;51.460;7.252;2022-08-25T15:17:16;27.40;56.00
2042;DHT22;1026;51.460;7.252;2022-08-25T15:19:42;27.40;57.70
2042;DHT22;1026;51.460;7.252;2022-08-25T15:22:08;27.50;55.80
2042;DHT22;1026;51.460;7.252;2022-08-25T15:24:34;27.50;56.50
2042;DHT22;1026;51.460;7.252;2022-08-25T15:27:02;27.50;57.00
2042;DHT22;1026;51.460;7.252;2022-08-25T15:29:30;27.40;56.00
2042;DHT22;1026;51.460;7.252;2022-08-25T15:31:58;27.50;55.10
2042;DHT22;1026;51.460;7.252;2022-08-25T15:34:24;27.60;57.10
2042;DHT22;1026;51.460;7.252;2022-08-25T15:36:50;27.60;54.60
2042;DHT22;1026;51.460;7.252;2022-08-25T15:39:16;27.60;55.90
2042;DHT22;1026;51.460;7.252;2022-08-25T15:41:43;27.60;57.30
2042;DHT22;1026;51.460;7.252;2022-08-25T15:44:09;27.70;56.60
2042;DHT22;1026;51.460;7.252;2022-08-25T15:46:36;27.70;55.80
2042;DHT22;1026;51.460;7.252;2022-08-25T15:49:03;27.70;55.80
2042;DHT22;1026;51.460;7.252;2022-08-25T15:51:30;27.70;55.00
2042;DHT22;1026;51.460;7.252;2022-08-25T15:53:56;27.70;56.40
2042;DHT22;1026;51.460;7.252;2022-08-25T15:56:23;27.70;56.90
2042;DHT22;1026;51.460;7.252;2022-08-25T15:58:49;27.60;55.70
2042;DHT22;1026;51.460;7.252;2022-08-25T16:01:18;27.70;55.10
2042;DHT22;1026;51.460;7.252;2022-08-25T16:03:45;27.80;57.10
2042;DHT22;1026;51.460;7.252;2022-08-25T16:06:10;27.80;55.80
2042;DHT22;1026;51.460;7.252;2022-08-25T16:08:37;27.80;55.00
2042;DHT22;1026;51.460;7.252;2022-08-25T16:11:03;27.90;55.90
2042;DHT22;1026;51.460;7.252;2022-08-25T16:13:29;27.80;55.30
2042;DHT22;1026;51.460;7.252;2022-08-25T16:15:54;27.80;55.90
2042;DHT22;1026;51.460;7.252;2022-08-25T16:18:22;27.90;56.20
2042;DHT22;1026;51.460;7.252;2022-08-25T16:20:48;27.90;55.70
2042;DHT22;1026;51.460;7.252;2022-08-25T16:23:16;27.90;55.30
2042;DHT22;1026;51.460;7.252;2022-08-25T16:25:44;27.90;55.00
2042;DHT22;1026;51.460;7.252;2022-08-25T16:28:11;27.90;56.80
2042;DHT22;1026;51.460;7.252;2022-08-25T16:30:38;27.90;54.70
2042;DHT22;1026;51.460;7.252;2022-08-25T16:33:05;27.80;53.90
2042;DHT22;1026;51.460;7.252;2022-08-25T16:35:32;27.90;55.50
2042;DHT22;1026;51.460;7.252;2022-08-25T16:37:58;27.90;57.10
2042;DHT22;1026;51.460;7.252;2022-08-25T16:40:24;27.80;55.60
2042;DHT22;1026;51.460;7.252;2022-08-25T16:42:51;27.90;55.00
2042;DHT22;1026;51.460;7.252;2022-08-25T16:45:18;28.00;55.70
2042;DHT22;1026;51.460;7.252;2022-08-25T16:47:44;28.00;55.20
2042;DHT22;1026;51.460;7.252;2022-08-25T16:50:10;27.90;56.40
2042;DHT22;1026;51.460;7.252;2022-08-25T16:52:37;27.80;56.00
2042;DHT22;1026;51.460;7.252;2022-08-25T16:55:18;27.90;55.70
2042;DHT22;1026;51.460;7.252;2022-08-25T16:57:48;27.90;55.50
2042;DHT22;1026;51.460;7.252;2022-08-25T17:00:17;28.00;55.70
2042;DHT22;1026;51.460;7.252;2022-08-25T17:02:43;28.00;56.30
2042;DHT22;1026;51.460;7.252;2022-08-25T17:05:10;28.00;55.90
2042;DHT22;1026;51.460;7.252;2022-08-25T17:07:36;28.00;56.40
2042;DHT22;1026;51.460;7.252;2022-08-25T17:10:04;28.00;55.40
2042;DHT22;1026;51.460;7.252;2022-08-25T17:12:30;28.00;56.20
2042;DHT22;1026;51.460;7.252;2022-08-25T17:14:56;28.00;55.00
2042;DHT22;1026;51.460;7.252;2022-08-25T17:17:21;28.00;55.00
2042;DHT22;1026;51.460;7.252;2022-08-25T17:19:47;28.00;54.90
2042;DHT22;1026;51.460;7.252;2022-08-25T17:22:13;28.00;55.70
2042;DHT22;1026;51.460;7.252;2022-08-25T17:24:41;28.00;55.80
2042;DHT22;1026;51.460;7.252;2022-08-25T17:27:08;28.00;56.10
2042;DHT22;1026;51.460;7.252;2022-08-25T17:29:33;28.00;55.50
2042;DHT22;1026;51.460;7.252;2022-08-25T17:31:59;27.90;56.30
2042;DHT22;1026;51.460;7.252;2022-08-25T17:34:26;28.00;56.70